sensor_id;sensor_type;location;lat;lon;timestamp;pressure;altitude;pressure_sealevel;temperature;humidity
39243;BME280;29823;47.404;8.566;2023-04-07T00:02:12;60175.97;;;-138.75;100.00
39243;BME280;29823;47.404;8.566;2023-04-07T00:04:40;60175.97;;;-138.75;100.00
39243;BME280;29823;47.404;8.566;2023-04-07T00:07:08;60175.97;;;-138.75;100.00
39243;BME280;29823;47.404;8.566;2023-04-07T00:09:36;60175.97;;;-138.75;100.00
39243;BME280;29823;47.404;8.566;2023-04-07T00:12:04;60175.97;;;-138.75;100.00
39243;BME280;29823;47.404;8.566;2023-04-07T00:14:32;60175.97;;;-138.75;100.00
39243;BME280;29823;47.404;8.566;2023-04-07T00:17:00;60175.97;;;-138.75;100.00
39243;BME280;29823;47.404;8.566;2023-04-07T00:19:29;60175.97;;;-138.75;100.00
39243;BME280;29823;47.404;8.566;2023-04-07T00:21:58;60175.97;;;-138.75;100.00
39243;BME280;29823;47.404;8.566;2023-04-07T00:24:26;60175.97;;;-138.75;100.00
39243;BME280;29823;47.404;8.566;2023-04-07T00:27:00;60175.97;;;-138.75;100.00
39243;BME280;29823;47.404;8.566;2023-04-07T00:29:28;60175.97;;;-138.75;100.00
39243;BME280;29823;47.404;8.566;2023-04-07T00:31:56;60175.97;;;-138.75;100.00
39243;BME280;29823;47.404;8.566;2023-04-07T00:34:24;60175.97;;;-138.75;100.00
39243;BME280;29823;47.404;8.566;2023-04-07T00:36:53;60175.97;;;-138.75;100.00
39243;BME280;29823;47.404;8.566;2023-04-07T00:39:21;60175.97;;;-138.75;100.00
39243;BME280;29823;47.404;8.566;2023-04-07T00:41:49;60175.97;;;-138.75;100.00
39243;BME280;29823;47.404;8.566;2023-04-07T00:44:17;60175.97;;;-138.75;100.00
39243;BME280;29823;47.404;8.566;2023-04-07T00:46:46;60175.97;;;-138.75;100.00
39243;BME280;29823;47.404;8.566;2023-04-07T00:49:14;60175.97;;;-138.75;100.00
39243;BME280;29823;47.404;8.566;2023-04-07T00:51:43;60175.97;;;-138.75;100.00
39243;BME280;29823;47.404;8.566;2023-04-07T00:54:13;60175.97;;;-138.75;100.00
39243;BME280;29823;47.404;8.566;2023-04-07T00:56:41;60175.97;;;-138.75;100.00
39243;BME280;29823;47.404;8.566;2023-04-07T00:59:09;60175.97;;;-138.75;100.00
39243;BME280;29823;47.404;8.566;2023-04-07T01:01:43;60175.97;;;-138.75;100.00
39243;BME280;29823;47.404;8.566;2023-04-07T01:04:20;60175.97;;;-138.75;100.00
39243;BME280;29823;47.404;8.566;2023-04-07T01:06:50;60175.97;;;-138.75;100.00
39243;BME280;29823;47.404;8.566;2023-04-07T01:09:26;60175.97;;;-138.75;100.00
39243;BME280;29823;47.404;8.566;2023-04-07T01:12:04;60175.97;;;-138.75;100.00
39243;BME280;29823;47.404;8.566;2023-04-07T01:14:34;60175.97;;;-138.75;100.00
39243;BME280;29823;47.404;8.566;2023-04-07T01:17:06;60175.97;;;-138.75;100.00
39243;BME280;29823;47.404;8.566;2023-04-07T01:19:39;60175.97;;;-138.75;100.00
39243;BME280;29823;47.404;8.566;2023-04-07T01:22:12;60175.97;;;-138.75;100.00
39243;BME280;29823;47.404;8.566;2023-04-07T01:25:13;60175.97;;;-138.75;100.00
39243;BME280;29823;47.404;8.566;2023-04-07T01:27:57;60175.97;;;-138.75;100.00
39243;BME280;29823;47.404;8.566;2023-04-07T01:30:31;60175.97;;;-138.75;100.00
39243;BME280;29823;47.404;8.566;2023-04-07T01:33:00;60175.97;;;-138.75;100.00
39243;BME280;29823;47.404;8.566;2023-04-07T01:35:31;60175.97;;;-138.75;100.00
39243;BME280;29823;47.404;8.566;2023-04-07T01:38:00;60175.97;;;-138.75;100.00
39243;BME280;29823;47.404;8.566;2023-04-07T01:40:28;60175.97;;;-138.75;100.00
39243;BME280;29823;47.404;8.566;2023-04-07T01:42:58;60175.97;;;-138.75;100.00
39243;BME280;29823;47.404;8.566;2023-04-07T01:45:28;60175.97;;;-138.75;100.00
39243;BME280;29823;47.404;8.566;2023-04-07T01:47:57;60175.97;;;-138.75;100.00
39243;BME280;29823;47.404;8.566;2023-04-07T01:50:27;60175.97;;;-138.75;100.00
39243;BME280;29823;47.404;8.566;2023-04-07T01:52:56;60175.97;;;-138.75;100.00
39243;BME280;29823;47.404;8.566;2023-04-07T01:55:24;60175.97;;;-138.75;100.00
39243;BME280;29823;47.404;8.566;2023-04-07T01:57:52;60175.97;;;-138.75;100.00
39243;BME280;29823;47.404;8.566;2023-04-07T02:00:20;60175.97;;;-138.75;100.00
39243;BME280;29823;47.404;8.566;2023-04-07T02:02:54;60175.97;;;-138.75;100.00
39243;BME280;29823;47.404;8.566;2023-04-07T02:05:26;60175.97;;;-138.75;100.00
39243;BME280;29823;47.404;8.566;2023-04-07T02:07:58;60175.97;;;-138.75;100.00
39243;BME280;29823;47.404;8.566;2023-04-07T02:10:28;60175.97;;;-138.75;100.00
39243;BME280;29823;47.404;8.566;2023-04-07T02:13:00;60175.97;;;-138.75;100.00
39243;BME280;29823;47.404;8.566;2023-04-07T02:15:30;60175.97;;;-138.75;100.00
39243;BME280;29823;47.404;8.566;2023-04-07T02:18:00;60175.97;;;-138.75;100.00
39243;BME280;29823;47.404;8.566;2023-04-07T02:20:30;60175.97;;;-138.75;100.00
39243;BME280;29823;47.404;8.566;2023-04-07T02:22:58;60175.97;;;-138.75;100.00
39243;BME280;29823;47.404;8.566;2023-04-07T02:25:28;60175.97;;;-138.75;100.00
39243;BME280;29823;47.404;8.566;2023-04-07T02:27:58;60175.97;;;-138.75;100.00
39243;BME280;29823;47.404;8.566;2023-04-07T02:30:26;60175.97;;;-138.75;100.00
39243;BME280;29823;47.404;8.566;2023-04-07T02:32:54;60175.97;;;-138.75;100.00
39243;BME280;29823;47.404;8.566;2023-04-07T02:35:23;60175.97;;;-138.75;100.00
39243;BME280;29823;47.404;8.566;2023-04-07T02:37:51;60175.97;;;-138.75;100.00
39243;BME280;29823;47.404;8.566;2023-04-07T02:40:19;60175.97;;;-138.75;100.00
39243;BME280;29823;47.404;8.566;2023-04-07T02:42:47;60175.97;;;-138.75;100.00
39243;BME280;29823;47.404;8.566;2023-04-07T02:45:15;60175.97;;;-138.75;100.00
39243;BME280;29823;47.404;8.566;2023-04-07T02:47:43;60175.97;;;-138.75;100.00
39243;BME280;29823;47.404;8.566;2023-04-07T02:50:11;60175.97;;;-138.75;100.00
39243;BME280;29823;47.404;8.566;2023-04-07T02:52:40;60175.97;;;-138.75;100.00
39243;BME280;29823;47.404;8.566;2023-04-07T02:55:08;60175.97;;;-138.75;100.00
39243;BME280;29823;47.404;8.566;2023-04-07T02:57:36;60175.97;;;-138.75;100.00
39243;BME280;29823;47.404;8.566;2023-04-07T03:00:05;60175.97;;;-138.75;100.00
39243;BME280;29823;47.404;8.566;2023-04-07T03:02:33;60175.97;;;-138.75;100.00
39243;BME280;29823;47.404;8.566;2023-04-07T03:05:01;60175.97;;;-138.75;100.00
39243;BME280;29823;47.404;8.566;2023-04-07T03:07:30;60175.97;;;-138.75;100.00
39243;BME280;29823;47.404;8.566;2023-04-07T03:09:59;60175.97;;;-138.75;100.00
39243;BME280;29823;47.404;8.566;2023-04-07T03:12:27;60175.97;;;-138.75;100.00
39243;BME280;29823;47.404;8.566;2023-04-07T03:14:55;60175.97;;;-138.75;100.00
39243;BME280;29823;47.404;8.566;2023-04-07T03:17:23;60175.97;;;-138.75;100.00
39243;BME280;29823;47.404;8.566;2023-04-07T03:19:50;60175.97;;;-138.75;100.00
39243;BME280;29823;47.404;8.566;2023-04-07T03:22:18;60175.97;;;-138.75;100.00
39243;BME280;29823;47.404;8.566;2023-04-07T03:24:46;60175.97;;;-138.75;100.00
39243;BME280;29823;47.404;8.566;2023-04-07T03:27:15;60175.97;;;-138.75;100.00
39243;BME280;29823;47.404;8.566;2023-04-07T03:29:43;60175.97;;;-138.75;100.00
39243;BME280;29823;47.404;8.566;2023-04-07T03:32:12;60175.97;;;-138.75;100.00
39243;BME280;29823;47.404;8.566;2023-04-07T03:34:40;60175.97;;;-138.75;100.00
39243;BME280;29823;47.404;8.566;2023-04-07T03:37:07;60175.97;;;-138.75;100.00
39243;BME280;29823;47.404;8.566;2023-04-07T03:39:35;60175.97;;;-138.75;100.00
39243;BME280;29823;47.404;8.566;2023-04-07T03:42:04;60175.97;;;-138.75;100.00
39243;BME280;29823;47.404;8.566;2023-04-07T03:44:34;60175.97;;;-138.75;100.00
39243;BME280;29823;47.404;8.566;2023-04-07T03:47:01;60175.97;;;-138.75;100.00
39243;BME280;29823;47.404;8.566;2023-04-07T03:49:29;60175.97;;;-138.75;100.00
39243;BME280;29823;47.404;8.566;2023-04-07T03:51:57;60175.97;;;-138.75;100.00
39243;BME280;29823;47.404;8.566;2023-04-07T03:54:25;60175.97;;;-138.75;100.00
39243;BME280;29823;47.404;8.566;2023-04-07T03:56:53;60175.97;;;-138.75;100.00
39243;BME280;29823;47.404;8.566;2023-04-07T03:59:22;60175.97;;;-138.75;100.00
39243;BME280;29823;47.404;8.566;2023-04-07T04:01:51;60175.97;;;-138.75;100.00
39243;BME280;29823;47.404;8.566;2023-04-07T04:04:19;60175.97;;;-138.75;100.00
39243;BME280;29823;47.404;8.566;2023-04-07T04:06:47;60175.97;;;-138.75;100.00
39243;BME280;29823;47.404;8.566;2023-04-07T04:09:15;60175.97;;;-138.75;100.00
39243;BME280;29823;47.404;8.566;2023-04-07T04:11:43;60175.97;;;-138.75;100.00
39243;BME280;29823;47.404;8.566;2023-04-07T04:14:11;60175.97;;;-138.75;100.00
39243;BME280;29823;47.404;8.566;2023-04-07T04:16:41;60175.97;;;-138.75;100.00
39243;BME280;29823;47.404;8.566;2023-04-07T04:19:10;60175.97;;;-138.75;100.00
39243;BME280;29823;47.404;8.566;2023-04-07T04:21:38;60175.97;;;-138.75;100.00
39243;BME280;29823;47.404;8.566;2023-04-07T04:24:06;60175.97;;;-138.75;100.00
39243;BME280;29823;47.404;8.566;2023-04-07T04:26:34;60175.97;;;-138.75;100.00
39243;BME280;29823;47.404;8.566;2023-04-07T04:29:02;60175.97;;;-138.75;100.00
39243;BME280;29823;47.404;8.566;2023-04-07T04:31:30;60175.97;;;-138.75;100.00
39243;BME280;29823;47.404;8.566;2023-04-07T04:33:58;60175.97;;;-138.75;100.00
39243;BME280;29823;47.404;8.566;2023-04-07T04:36:27;60175.97;;;-138.75;100.00
39243;BME280;29823;47.404;8.566;2023-04-07T04:38:55;60175.97;;;-138.75;100.00
39243;BME280;29823;47.404;8.566;2023-04-07T04:41:22;60175.97;;;-138.75;100.00
39243;BME280;29823;47.404;8.566;2023-04-07T04:43:50;60175.97;;;-138.75;100.00
39243;BME280;29823;47.404;8.566;2023-04-07T04:46:18;60175.97;;;-138.75;100.00
39243;BME280;29823;47.404;8.566;2023-04-07T04:48:46;60175.97;;;-138.75;100.00
39243;BME280;29823;47.404;8.566;2023-04-07T04:51:14;60175.97;;;-138.75;100.00
39243;BME280;29823;47.404;8.566;2023-04-07T04:53:43;60175.97;;;-138.75;100.00
39243;BME280;29823;47.404;8.566;2023-04-07T04:56:11;60175.97;;;-138.75;100.00
39243;BME280;29823;47.404;8.566;2023-04-07T04:58:39;60175.97;;;-138.75;100.00
39243;BME280;29823;47.404;8.566;2023-04-07T05:01:11;60175.97;;;-138.75;100.00
39243;BME280;29823;47.404;8.566;2023-04-07T05:03:39;60175.97;;;-138.75;100.00
39243;BME280;29823;47.404;8.566;2023-04-07T05:06:07;60175.97;;;-138.75;100.00
39243;BME280;29823;47.404;8.566;2023-04-07T05:08:35;60175.97;;;-138.75;100.00
39243;BME280;29823;47.404;8.566;2023-04-07T05:11:04;60175.97;;;-138.75;100.00
39243;BME280;29823;47.404;8.566;2023-04-07T05:13:32;60175.97;;;-138.75;100.00
39243;BME280;29823;47.404;8.566;2023-04-07T05:16:00;60175.97;;;-138.75;100.00
39243;BME280;29823;47.404;8.566;2023-04-07T05:18:28;60175.97;;;-138.75;100.00
39243;BME280;29823;47.404;8.566;2023-04-07T05:20:55;60175.97;;;-138.75;100.00
39243;BME280;29823;47.404;8.566;2023-04-07T05:23:43;96193.66;;;6.38;100.00
39243;BME280;29823;47.404;8.566;2023-04-07T05:26:11;96191.84;;;6.39;100.00
39243;BME280;29823;47.404;8.566;2023-04-07T05:28:39;96195.88;;;6.48;100.00
39243;BME280;29823;47.404;8.566;2023-04-07T05:31:07;96185.66;;;6.51;100.00
39243;BME280;29823;47.404;8.566;2023-04-07T05:33:35;96190.25;;;6.69;100.00
39243;BME280;29823;47.404;8.566;2023-04-07T05:36:03;96188.19;;;6.64;100.00
39243;BME280;29823;47.404;8.566;2023-04-07T05:38:31;96170.84;;;6.62;100.00
39243;BME280;29823;47.404;8.566;2023-04-07T05:41:00;96187.06;;;6.85;100.00
39243;BME280;29823;47.404;8.566;2023-04-07T05:43:28;96189.00;;;6.96;100.00
39243;BME280;29823;47.404;8.566;2023-04-07T05:45:56;96175.09;;;6.94;100.00
39243;BME280;29823;47.404;8.566;2023-04-07T05:48:24;96184.63;;;7.08;100.00
39243;BME280;29823;47.404;8.566;2023-04-07T05:50:52;96170.03;;;7.17;100.00
39243;BME280;29823;47.404;8.566;2023-04-07T05:53:19;96171.56;;;7.24;100.00
39243;BME280;29823;47.404;8.566;2023-04-07T05:55:48;96168.78;;;7.19;100.00
39243;BME280;29823;47.404;8.566;2023-04-07T05:58:17;96176.16;;;7.35;100.00
39243;BME280;29823;47.404;8.566;2023-04-07T06:00:45;96171.72;;;7.29;100.00
39243;BME280;29823;47.404;8.566;2023-04-07T06:03:13;96172.59;;;7.23;100.00
39243;BME280;29823;47.404;8.566;2023-04-07T06:05:41;96172.44;;;7.18;100.00
39243;BME280;29823;47.404;8.566;2023-04-07T06:08:09;96174.47;;;7.23;100.00
39243;BME280;29823;47.404;8.566;2023-04-07T06:10:37;96169.06;;;7.29;100.00
39243;BME280;29823;47.404;8.566;2023-04-07T06:13:06;96171.41;;;7.44;100.00
39243;BME280;29823;47.404;8.566;2023-04-07T06:15:36;96180.59;;;7.23;100.00
39243;BME280;29823;47.404;8.566;2023-04-07T06:18:04;96177.75;;;7.18;100.00
39243;BME280;29823;47.404;8.566;2023-04-07T06:20:31;96180.09;;;7.08;100.00
39243;BME280;29823;47.404;8.566;2023-04-07T06:22:59;96175.88;;;7.01;100.00
39243;BME280;29823;47.404;8.566;2023-04-07T06:25:27;96180.47;;;7.36;100.00
39243;BME280;29823;47.404;8.566;2023-04-07T06:27:55;96173.91;;;7.57;100.00
39243;BME280;29823;47.404;8.566;2023-04-07T06:30:23;96177.97;;;7.59;100.00
39243;BME280;29823;47.404;8.566;2023-04-07T06:32:52;96159.28;;;7.66;100.00
39243;BME280;29823;47.404;8.566;2023-04-07T06:35:20;96182.63;;;8.00;100.00
39243;BME280;29823;47.404;8.566;2023-04-07T06:37:48;96180.47;;;8.26;100.00
39243;BME280;29823;47.404;8.566;2023-04-07T06:40:16;96179.81;;;8.60;100.00
39243;BME280;29823;47.404;8.566;2023-04-07T06:42:44;96175.63;;;8.64;100.00
39243;BME280;29823;47.404;8.566;2023-04-07T06:45:12;96175.59;;;8.82;100.00
39243;BME280;29823;47.404;8.566;2023-04-07T06:47:40;96167.50;;;9.00;96.05
39243;BME280;29823;47.404;8.566;2023-04-07T06:50:10;96153.50;;;9.16;86.48
39243;BME280;29823;47.404;8.566;2023-04-07T06:52:38;96164.88;;;9.12;88.99
39243;BME280;29823;47.404;8.566;2023-04-07T06:55:06;96159.75;;;9.10;87.11
39243;BME280;29823;47.404;8.566;2023-04-07T06:57:34;96163.34;;;9.27;83.73
39243;BME280;29823;47.404;8.566;2023-04-07T07:00:03;96172.53;;;9.08;91.36
39243;BME280;29823;47.404;8.566;2023-04-07T07:02:33;96175.28;;;9.13;92.18
39243;BME280;29823;47.404;8.566;2023-04-07T07:05:01;96171.34;;;9.27;92.02
39243;BME280;29823;47.404;8.566;2023-04-07T07:07:31;96181.94;;;9.34;87.89
39243;BME280;29823;47.404;8.566;2023-04-07T07:09:59;96179.50;;;9.32;86.68
39243;BME280;29823;47.404;8.566;2023-04-07T07:12:27;96189.78;;;9.17;88.72
39243;BME280;29823;47.404;8.566;2023-04-07T07:14:55;96185.28;;;9.18;88.76
39243;BME280;29823;47.404;8.566;2023-04-07T07:17:23;96186.69;;;9.55;88.78
39243;BME280;29823;47.404;8.566;2023-04-07T07:19:50;96188.88;;;9.69;87.43
39243;BME280;29823;47.404;8.566;2023-04-07T07:22:18;96193.28;;;9.75;86.39
39243;BME280;29823;47.404;8.566;2023-04-07T07:24:47;96188.50;;;9.77;87.46
39243;BME280;29823;47.404;8.566;2023-04-07T07:27:16;96189.81;;;9.63;90.16
39243;BME280;29823;47.404;8.566;2023-04-07T07:29:44;96186.91;;;9.76;91.59
39243;BME280;29823;47.404;8.566;2023-04-07T07:32:11;96188.25;;;10.13;88.08
39243;BME280;29823;47.404;8.566;2023-04-07T07:34:39;96195.53;;;10.29;86.08
39243;BME280;29823;47.404;8.566;2023-04-07T07:37:07;96198.66;;;10.26;88.43
39243;BME280;29823;47.404;8.566;2023-04-07T07:39:35;96193.59;;;10.53;85.51
39243;BME280;29823;47.404;8.566;2023-04-07T07:42:04;96190.78;;;10.59;84.49
39243;BME280;29823;47.404;8.566;2023-04-07T07:44:32;96182.47;;;10.16;89.46
39243;BME280;29823;47.404;8.566;2023-04-07T07:47:00;96201.06;;;10.11;84.38
39243;BME280;29823;47.404;8.566;2023-04-07T07:49:28;96191.06;;;9.72;89.92
39243;BME280;29823;47.404;8.566;2023-04-07T07:51:56;96211.03;;;9.93;87.32
39243;BME280;29823;47.404;8.566;2023-04-07T07:54:25;96213.94;;;9.80;88.08
39243;BME280;29823;47.404;8.566;2023-04-07T07:56:52;96208.63;;;9.57;88.03
39243;BME280;29823;47.404;8.566;2023-04-07T07:59:22;96209.88;;;10.00;85.26
39243;BME280;29823;47.404;8.566;2023-04-07T08:01:50;96203.56;;;10.29;83.52
39243;BME280;29823;47.404;8.566;2023-04-07T08:04:17;96204.41;;;9.95;82.59
39243;BME280;29823;47.404;8.566;2023-04-07T08:06:46;96216.22;;;9.99;77.68
39243;BME280;29823;47.404;8.566;2023-04-07T08:09:14;96212.78;;;9.76;79.50
39243;BME280;29823;47.404;8.566;2023-04-07T08:11:41;96215.69;;;9.51;81.97
39243;BME280;29823;47.404;8.566;2023-04-07T08:14:09;96218.13;;;9.76;83.94
39243;BME280;29823;47.404;8.566;2023-04-07T08:16:39;96220.09;;;9.80;82.06
39243;BME280;29823;47.404;8.566;2023-04-07T08:19:07;96223.44;;;9.87;81.52
39243;BME280;29823;47.404;8.566;2023-04-07T08:21:34;96218.81;;;9.83;81.57
39243;BME280;29823;47.404;8.566;2023-04-07T08:24:02;96236.00;;;9.87;80.02
39243;BME280;29823;47.404;8.566;2023-04-07T08:26:30;96236.00;;;10.21;80.02
39243;BME280;29823;47.404;8.566;2023-04-07T08:28:58;96244.69;;;9.82;82.98
39243;BME280;29823;47.404;8.566;2023-04-07T08:31:26;96236.44;;;9.72;85.68
39243;BME280;29823;47.404;8.566;2023-04-07T08:33:55;96240.03;;;10.01;86.92
39243;BME280;29823;47.404;8.566;2023-04-07T08:36:24;96248.31;;;9.88;88.09
39243;BME280;29823;47.404;8.566;2023-04-07T08:38:53;96242.72;;;9.78;86.73
39243;BME280;29823;47.404;8.566;2023-04-07T08:41:28;96250.28;;;9.69;80.84
39243;BME280;29823;47.404;8.566;2023-04-07T08:43:57;96250.41;;;9.51;82.99
39243;BME280;29823;47.404;8.566;2023-04-07T08:46:28;96260.56;;;9.43;85.89
39243;BME280;29823;47.404;8.566;2023-04-07T08:48:58;96266.19;;;9.76;84.65
39243;BME280;29823;47.404;8.566;2023-04-07T08:51:28;96258.63;;;9.50;83.42
39243;BME280;29823;47.404;8.566;2023-04-07T08:54:10;96269.78;;;9.58;87.19
39243;BME280;29823;47.404;8.566;2023-04-07T08:56:39;96279.50;;;9.00;94.87
39243;BME280;29823;47.404;8.566;2023-04-07T08:59:09;96273.25;;;9.47;94.70
39243;BME280;29823;47.404;8.566;2023-04-07T09:01:38;96264.44;;;9.58;96.22
39243;BME280;29823;47.404;8.566;2023-04-07T09:04:08;96270.38;;;10.06;93.90
39243;BME280;29823;47.404;8.566;2023-04-07T09:06:37;96274.41;;;9.97;96.26
39243;BME280;29823;47.404;8.566;2023-04-07T09:09:05;96280.31;;;10.45;96.06
39243;BME280;29823;47.404;8.566;2023-04-07T09:11:35;96289.59;;;10.54;95.56
39243;BME280;29823;47.404;8.566;2023-04-07T09:14:03;96287.41;;;10.40;93.37
39243;BME280;29823;47.404;8.566;2023-04-07T09:16:31;96281.06;;;10.97;89.75
39243;BME280;29823;47.404;8.566;2023-04-07T09:18:59;96285.56;;;10.40;93.33
39243;BME280;29823;47.404;8.566;2023-04-07T09:21:46;96275.19;;;10.83;90.26
39243;BME280;29823;47.404;8.566;2023-04-07T09:24:21;96279.00;;;11.15;86.87
39243;BME280;29823;47.404;8.566;2023-04-07T09:26:49;96277.59;;;11.41;86.30
39243;BME280;29823;47.404;8.566;2023-04-07T09:29:18;96289.56;;;11.22;87.58
39243;BME280;29823;47.404;8.566;2023-04-07T09:31:48;96287.59;;;11.17;88.75
39243;BME280;29823;47.404;8.566;2023-04-07T09:34:25;96285.44;;;11.31;86.31
39243;BME280;29823;47.404;8.566;2023-04-07T09:36:55;96281.13;;;11.74;84.74
39243;BME280;29823;47.404;8.566;2023-04-07T09:39:23;96290.03;;;11.80;82.20
39243;BME280;29823;47.404;8.566;2023-04-07T09:41:51;96288.25;;;11.08;84.71
39243;BME280;29823;47.404;8.566;2023-04-07T09:44:20;96296.19;;;11.47;86.69
39243;BME280;29823;47.404;8.566;2023-04-07T09:46:50;96296.94;;;11.59;80.36
39243;BME280;29823;47.404;8.566;2023-04-07T09:49:18;96287.41;;;11.35;81.87
39243;BME280;29823;47.404;8.566;2023-04-07T09:51:52;96297.13;;;11.69;82.68
39243;BME280;29823;47.404;8.566;2023-04-07T09:54:34;96299.94;;;11.63;80.18
39243;BME280;29823;47.404;8.566;2023-04-07T09:57:06;96299.72;;;11.64;81.33
39243;BME280;29823;47.404;8.566;2023-04-07T09:59:35;96299.53;;;11.87;80.55
39243;BME280;29823;47.404;8.566;2023-04-07T10:02:04;96298.56;;;11.16;81.95
39243;BME280;29823;47.404;8.566;2023-04-07T10:04:33;96301.41;;;11.70;78.34
39243;BME280;29823;47.404;8.566;2023-04-07T10:07:01;96307.25;;;11.23;81.74
39243;BME280;29823;47.404;8.566;2023-04-07T10:09:30;96314.41;;;11.50;80.46
39243;BME280;29823;47.404;8.566;2023-04-07T10:11:59;96303.19;;;11.20;82.90
39243;BME280;29823;47.404;8.566;2023-04-07T10:14:29;96299.50;;;11.54;79.83
39243;BME280;29823;47.404;8.566;2023-04-07T10:16:58;96305.38;;;11.51;79.83
39243;BME280;29823;47.404;8.566;2023-04-07T10:19:29;96309.75;;;12.07;79.20
39243;BME280;29823;47.404;8.566;2023-04-07T10:22:00;96314.78;;;11.26;80.79
39243;BME280;29823;47.404;8.566;2023-04-07T10:24:41;96319.13;;;11.43;81.92
39243;BME280;29823;47.404;8.566;2023-04-07T10:27:18;96310.38;;;11.03;83.26
39243;BME280;29823;47.404;8.566;2023-04-07T10:29:49;96318.50;;;10.69;85.15
39243;BME280;29823;47.404;8.566;2023-04-07T10:32:19;96322.50;;;10.43;89.12
39243;BME280;29823;47.404;8.566;2023-04-07T10:34:57;96319.13;;;10.48;92.88
39243;BME280;29823;47.404;8.566;2023-04-07T10:37:25;96319.47;;;9.82;93.74
39243;BME280;29823;47.404;8.566;2023-04-07T10:40:28;96319.22;;;9.72;95.85
39243;BME280;29823;47.404;8.566;2023-04-07T10:42:57;96304.94;;;9.90;92.87
39243;BME280;29823;47.404;8.566;2023-04-07T10:45:54;96324.13;;;10.33;91.86
39243;BME280;29823;47.404;8.566;2023-04-07T10:48:26;96314.59;;;10.25;95.71
39243;BME280;29823;47.404;8.566;2023-04-07T10:51:15;96326.72;;;10.79;90.07
39243;BME280;29823;47.404;8.566;2023-04-07T10:54:17;96323.44;;;10.14;95.54
39243;BME280;29823;47.404;8.566;2023-04-07T10:57:08;96337.09;;;9.83;99.91
39243;BME280;29823;47.404;8.566;2023-04-07T10:59:40;96322.75;;;10.42;98.75
39243;BME280;29823;47.404;8.566;2023-04-07T11:02:31;96325.19;;;10.32;98.11
39243;BME280;29823;47.404;8.566;2023-04-07T11:05:00;96326.13;;;10.77;96.27
39243;BME280;29823;47.404;8.566;2023-04-07T11:07:52;96320.34;;;9.53;99.34
39243;BME280;29823;47.404;8.566;2023-04-07T11:10:23;96334.13;;;10.26;100.00
39243;BME280;29823;47.404;8.566;2023-04-07T11:13:02;96338.41;;;9.81;100.00
39243;BME280;29823;47.404;8.566;2023-04-07T11:15:33;96334.44;;;9.83;100.00
39243;BME280;29823;47.404;8.566;2023-04-07T11:18:10;96347.31;;;9.63;100.00
39243;BME280;29823;47.404;8.566;2023-04-07T11:20:40;96350.81;;;9.34;100.00
39243;BME280;29823;47.404;8.566;2023-04-07T11:23:11;96346.13;;;9.59;100.00
39243;BME280;29823;47.404;8.566;2023-04-07T11:25:41;96347.16;;;9.17;100.00
39243;BME280;29823;47.404;8.566;2023-04-07T11:28:09;96344.69;;;9.04;100.00
39243;BME280;29823;47.404;8.566;2023-04-07T11:30:44;96351.97;;;9.38;100.00
39243;BME280;29823;47.404;8.566;2023-04-07T11:33:16;96358.78;;;9.52;100.00
39243;BME280;29823;47.404;8.566;2023-04-07T11:35:52;96361.59;;;8.80;100.00
39243;BME280;29823;47.404;8.566;2023-04-07T11:38:24;96355.41;;;8.98;100.00
39243;BME280;29823;47.404;8.566;2023-04-07T11:40:53;96363.84;;;8.65;100.00
39243;BME280;29823;47.404;8.566;2023-04-07T11:43:23;96357.38;;;8.73;100.00
39243;BME280;29823;47.404;8.566;2023-04-07T11:46:07;96353.72;;;8.13;100.00
39243;BME280;29823;47.404;8.566;2023-04-07T11:48:37;96378.59;;;7.76;100.00
39243;BME280;29823;47.404;8.566;2023-04-07T11:51:06;96364.72;;;7.74;100.00
39243;BME280;29823;47.404;8.566;2023-04-07T11:53:41;96383.91;;;7.52;100.00
39243;BME280;29823;47.404;8.566;2023-04-07T11:56:11;96381.06;;;7.78;100.00
39243;BME280;29823;47.404;8.566;2023-04-07T11:58:46;96392.66;;;7.59;100.00
39243;BME280;29823;47.404;8.566;2023-04-07T12:01:15;96385.97;;;7.50;100.00
39243;BME280;29823;47.404;8.566;2023-04-07T12:03:55;96384.94;;;7.51;100.00
39243;BME280;29823;47.404;8.566;2023-04-07T12:06:29;96386.09;;;7.61;100.00
39243;BME280;29823;47.404;8.566;2023-04-07T12:09:01;96393.31;;;7.54;100.00
39243;BME280;29823;47.404;8.566;2023-04-07T12:11:29;96399.41;;;7.30;100.00
39243;BME280;29823;47.404;8.566;2023-04-07T12:13:57;96392.28;;;7.55;100.00
39243;BME280;29823;47.404;8.566;2023-04-07T12:16:26;96394.31;;;7.60;100.00
39243;BME280;29823;47.404;8.566;2023-04-07T12:18:54;96386.75;;;7.81;100.00
39243;BME280;29823;47.404;8.566;2023-04-07T12:21:22;96393.28;;;7.85;100.00
39243;BME280;29823;47.404;8.566;2023-04-07T12:23:51;96400.09;;;7.99;100.00
39243;BME280;29823;47.404;8.566;2023-04-07T12:26:19;96381.31;;;7.94;100.00
39243;BME280;29823;47.404;8.566;2023-04-07T12:28:48;96380.31;;;7.95;100.00
39243;BME280;29823;47.404;8.566;2023-04-07T12:31:16;96397.22;;;8.01;100.00
39243;BME280;29823;47.404;8.566;2023-04-07T12:33:46;96378.06;;;7.92;100.00
39243;BME280;29823;47.404;8.566;2023-04-07T12:36:14;96379.81;;;7.80;100.00
39243;BME280;29823;47.404;8.566;2023-04-07T12:38:42;96393.16;;;7.98;100.00
39243;BME280;29823;47.404;8.566;2023-04-07T12:41:11;96393.66;;;8.13;100.00
39243;BME280;29823;47.404;8.566;2023-04-07T12:43:38;96392.19;;;7.68;100.00
39243;BME280;29823;47.404;8.566;2023-04-07T12:46:06;96378.22;;;7.48;100.00
39243;BME280;29823;47.404;8.566;2023-04-07T12:48:34;96391.53;;;7.97;100.00
39243;BME280;29823;47.404;8.566;2023-04-07T12:51:04;96391.75;;;8.20;100.00
39243;BME280;29823;47.404;8.566;2023-04-07T12:53:32;96378.81;;;8.24;100.00
39243;BME280;29823;47.404;8.566;2023-04-07T12:55:59;96369.03;;;7.93;100.00
39243;BME280;29823;47.404;8.566;2023-04-07T12:58:28;96387.75;;;8.54;100.00
39243;BME280;29823;47.404;8.566;2023-04-07T13:00:56;96379.50;;;8.37;100.00
39243;BME280;29823;47.404;8.566;2023-04-07T13:03:24;96390.03;;;8.50;100.00
39243;BME280;29823;47.404;8.566;2023-04-07T13:05:52;96375.56;;;8.22;100.00